sensor_id;sensor_type;location;lat;lon;timestamp;P1;durP1;ratioP1;P2;durP2;ratioP2
29916;SDS011;16786;49.466;11.068;2023-07-13T00:01:55;7.80;;;4.35;;
29916;SDS011;16786;49.466;11.068;2023-07-13T00:04:23;4.93;;;4.43;;
29916;SDS011;16786;49.466;11.068;2023-07-13T00:06:56;8.00;;;4.80;;
29916;SDS011;16786;49.466;11.068;2023-07-13T00:09:24;7.90;;;4.93;;
29916;SDS011;16786;49.466;11.068;2023-07-13T00:11:55;5.90;;;4.65;;
29916;SDS011;16786;49.466;11.068;2023-07-13T00:14:24;5.38;;;4.72;;
29916;SDS011;16786;49.466;11.068;2023-07-13T00:16:52;6.25;;;4.75;;
29916;SDS011;16786;49.466;11.068;2023-07-13T00:19:20;5.10;;;4.60;;
29916;SDS011;16786;49.466;11.068;2023-07-13T00:21:47;6.78;;;4.82;;
29916;SDS011;16786;49.466;11.068;2023-07-13T00:24:16;13.18;;;4.95;;
29916;SDS011;16786;49.466;11.068;2023-07-13T00:26:50;8.13;;;4.28;;
29916;SDS011;16786;49.466;11.068;2023-07-13T00:29:18;7.43;;;4.88;;
29916;SDS011;16786;49.466;11.068;2023-07-13T00:31:48;5.40;;;4.60;;
29916;SDS011;16786;49.466;11.068;2023-07-13T00:34:15;6.90;;;4.63;;
29916;SDS011;16786;49.466;11.068;2023-07-13T00:36:43;5.95;;;4.90;;
29916;SDS011;16786;49.466;11.068;2023-07-13T00:39:10;5.72;;;4.80;;
29916;SDS011;16786;49.466;11.068;2023-07-13T00:41:39;5.13;;;4.63;;
29916;SDS011;16786;49.466;11.068;2023-07-13T00:44:10;6.55;;;4.50;;
29916;SDS011;16786;49.466;11.068;2023-07-13T00:46:41;5.40;;;4.50;;
29916;SDS011;16786;49.466;11.068;2023-07-13T00:49:19;6.07;;;4.45;;
29916;SDS011;16786;49.466;11.068;2023-07-13T00:51:49;5.32;;;4.65;;
29916;SDS011;16786;49.466;11.068;2023-07-13T00:54:22;5.70;;;4.55;;
29916;SDS011;16786;49.466;11.068;2023-07-13T00:56:53;5.10;;;4.50;;
29916;SDS011;16786;49.466;11.068;2023-07-13T00:59:24;5.47;;;4.60;;
29916;SDS011;16786;49.466;11.068;2023-07-13T01:01:52;7.13;;;4.75;;
29916;SDS011;16786;49.466;11.068;2023-07-13T01:04:23;6.38;;;4.60;;
29916;SDS011;16786;49.466;11.068;2023-07-13T01:06:51;5.30;;;4.80;;
29916;SDS011;16786;49.466;11.068;2023-07-13T01:09:20;7.63;;;4.70;;
29916;SDS011;16786;49.466;11.068;2023-07-13T01:11:48;5.97;;;4.43;;
29916;SDS011;16786;49.466;11.068;2023-07-13T01:14:15;7.53;;;4.40;;
29916;SDS011;16786;49.466;11.068;2023-07-13T01:16:44;6.80;;;4.80;;
29916;SDS011;16786;49.466;11.068;2023-07-13T01:19:32;6.00;;;4.50;;
29916;SDS011;16786;49.466;11.068;2023-07-13T01:22:24;5.88;;;4.53;;
29916;SDS011;16786;49.466;11.068;2023-07-13T01:24:53;6.30;;;4.40;;
29916;SDS011;16786;49.466;11.068;2023-07-13T01:27:21;5.90;;;4.50;;
29916;SDS011;16786;49.466;11.068;2023-07-13T01:29:52;5.13;;;4.63;;
29916;SDS011;16786;49.466;11.068;2023-07-13T01:32:30;5.00;;;4.50;;
29916;SDS011;16786;49.466;11.068;2023-07-13T01:34:59;6.15;;;4.63;;
29916;SDS011;16786;49.466;11.068;2023-07-13T01:37:27;6.68;;;4.30;;
29916;SDS011;16786;49.466;11.068;2023-07-13T01:39:54;5.57;;;4.57;;
29916;SDS011;16786;49.466;11.068;2023-07-13T01:42:21;6.10;;;4.20;;
29916;SDS011;16786;49.466;11.068;2023-07-13T01:44:49;5.80;;;4.60;;
29916;SDS011;16786;49.466;11.068;2023-07-13T01:47:16;6.25;;;4.40;;
29916;SDS011;16786;49.466;11.068;2023-07-13T01:49:44;5.75;;;4.60;;
29916;SDS011;16786;49.466;11.068;2023-07-13T01:52:14;4.97;;;4.20;;
29916;SDS011;16786;49.466;11.068;2023-07-13T01:54:41;5.80;;;4.35;;
29916;SDS011;16786;49.466;11.068;2023-07-13T01:57:08;6.03;;;4.65;;
29916;SDS011;16786;49.466;11.068;2023-07-13T01:59:36;6.95;;;4.32;;
29916;SDS011;16786;49.466;11.068;2023-07-13T02:02:05;4.93;;;4.20;;
29916;SDS011;16786;49.466;11.068;2023-07-13T02:04:33;5.53;;;4.50;;
29916;SDS011;16786;49.466;11.068;2023-07-13T02:07:01;4.80;;;4.40;;
29916;SDS011;16786;49.466;11.068;2023-07-13T02:09:28;9.30;;;4.82;;
29916;SDS011;16786;49.466;11.068;2023-07-13T02:11:55;5.22;;;4.50;;
29916;SDS011;16786;49.466;11.068;2023-07-13T02:14:29;5.13;;;4.35;;
29916;SDS011;16786;49.466;11.068;2023-07-13T02:16:57;5.20;;;4.47;;
29916;SDS011;16786;49.466;11.068;2023-07-13T02:19:24;6.80;;;4.45;;
29916;SDS011;16786;49.466;11.068;2023-07-13T02:21:51;5.47;;;4.72;;
29916;SDS011;16786;49.466;11.068;2023-07-13T02:24:19;6.82;;;4.40;;
29916;SDS011;16786;49.466;11.068;2023-07-13T02:26:47;6.72;;;4.30;;
29916;SDS011;16786;49.466;11.068;2023-07-13T02:29:15;5.78;;;4.38;;
29916;SDS011;16786;49.466;11.068;2023-07-13T02:31:44;5.10;;;4.60;;
29916;SDS011;16786;49.466;11.068;2023-07-13T02:34:12;4.90;;;4.38;;
29916;SDS011;16786;49.466;11.068;2023-07-13T02:36:39;4.43;;;4.03;;
29916;SDS011;16786;49.466;11.068;2023-07-13T02:39:07;4.70;;;4.20;;
29916;SDS011;16786;49.466;11.068;2023-07-13T02:41:35;7.10;;;4.50;;
29916;SDS011;16786;49.466;11.068;2023-07-13T02:44:02;5.97;;;4.57;;
29916;SDS011;16786;49.466;11.068;2023-07-13T02:46:31;7.47;;;4.75;;
29916;SDS011;16786;49.466;11.068;2023-07-13T02:49:00;5.95;;;4.47;;
29916;SDS011;16786;49.466;11.068;2023-07-13T02:51:27;6.10;;;4.38;;
29916;SDS011;16786;49.466;11.068;2023-07-13T02:53:55;7.78;;;4.45;;
29916;SDS011;16786;49.466;11.068;2023-07-13T02:56:23;6.07;;;4.60;;
29916;SDS011;16786;49.466;11.068;2023-07-13T02:58:52;4.80;;;4.30;;
29916;SDS011;16786;49.466;11.068;2023-07-13T03:01:21;5.90;;;4.22;;
29916;SDS011;16786;49.466;11.068;2023-07-13T03:03:49;5.47;;;4.43;;
29916;SDS011;16786;49.466;11.068;2023-07-13T03:06:19;7.00;;;4.60;;
29916;SDS011;16786;49.466;11.068;2023-07-13T03:08:51;5.50;;;4.35;;
29916;SDS011;16786;49.466;11.068;2023-07-13T03:11:19;5.68;;;4.90;;
29916;SDS011;16786;49.466;11.068;2023-07-13T03:13:53;5.43;;;4.88;;
29916;SDS011;16786;49.466;11.068;2023-07-13T03:16:23;5.88;;;4.53;;
29916;SDS011;16786;49.466;11.068;2023-07-13T03:18:52;5.85;;;5.00;;
29916;SDS011;16786;49.466;11.068;2023-07-13T03:21:19;6.75;;;4.57;;
29916;SDS011;16786;49.466;11.068;2023-07-13T03:23:47;8.55;;;4.78;;
29916;SDS011;16786;49.466;11.068;2023-07-13T03:26:16;5.00;;;4.30;;
29916;SDS011;16786;49.466;11.068;2023-07-13T03:28:45;7.43;;;4.55;;
29916;SDS011;16786;49.466;11.068;2023-07-13T03:31:18;5.30;;;4.80;;
29916;SDS011;16786;49.466;11.068;2023-07-13T03:33:47;5.80;;;4.50;;
29916;SDS011;16786;49.466;11.068;2023-07-13T03:36:19;6.82;;;4.40;;
29916;SDS011;16786;49.466;11.068;2023-07-13T03:38:54;5.20;;;4.43;;
29916;SDS011;16786;49.466;11.068;2023-07-13T03:41:28;7.03;;;4.88;;
29916;SDS011;16786;49.466;11.068;2023-07-13T03:43:56;5.10;;;4.30;;
29916;SDS011;16786;49.466;11.068;2023-07-13T03:46:25;6.63;;;4.40;;
29916;SDS011;16786;49.466;11.068;2023-07-13T03:48:54;7.55;;;4.30;;
29916;SDS011;16786;49.466;11.068;2023-07-13T03:51:21;6.05;;;4.63;;
29916;SDS011;16786;49.466;11.068;2023-07-13T03:53:49;4.70;;;3.95;;
29916;SDS011;16786;49.466;11.068;2023-07-13T03:56:18;5.10;;;4.28;;
29916;SDS011;16786;49.466;11.068;2023-07-13T03:58:47;5.50;;;4.22;;
29916;SDS011;16786;49.466;11.068;2023-07-13T04:01:19;8.63;;;4.57;;
29916;SDS011;16786;49.466;11.068;2023-07-13T04:03:49;6.15;;;4.40;;
29916;SDS011;16786;49.466;11.068;2023-07-13T04:06:20;7.35;;;4.30;;
29916;SDS011;16786;49.466;11.068;2023-07-13T04:08:51;6.82;;;4.57;;
29916;SDS011;16786;49.466;11.068;2023-07-13T04:11:24;6.20;;;4.35;;
29916;SDS011;16786;49.466;11.068;2023-07-13T04:13:56;5.15;;;4.55;;
29916;SDS011;16786;49.466;11.068;2023-07-13T04:16:24;7.40;;;4.20;;
29916;SDS011;16786;49.466;11.068;2023-07-13T04:18:52;7.82;;;4.30;;
29916;SDS011;16786;49.466;11.068;2023-07-13T04:21:27;5.28;;;4.65;;
29916;SDS011;16786;49.466;11.068;2023-07-13T04:23:56;5.25;;;4.65;;
29916;SDS011;16786;49.466;11.068;2023-07-13T04:26:24;6.07;;;4.55;;
29916;SDS011;16786;49.466;11.068;2023-07-13T04:28:51;7.85;;;5.07;;
29916;SDS011;16786;49.466;11.068;2023-07-13T04:31:19;6.10;;;4.93;;
29916;SDS011;16786;49.466;11.068;2023-07-13T04:33:47;7.35;;;4.60;;
29916;SDS011;16786;49.466;11.068;2023-07-13T04:36:15;5.35;;;4.80;;
29916;SDS011;16786;49.466;11.068;2023-07-13T04:38:43;6.28;;;4.70;;
29916;SDS011;16786;49.466;11.068;2023-07-13T04:41:11;6.65;;;4.85;;
29916;SDS011;16786;49.466;11.068;2023-07-13T04:43:40;6.38;;;4.88;;
29916;SDS011;16786;49.466;11.068;2023-07-13T04:46:08;7.25;;;4.72;;
29916;SDS011;16786;49.466;11.068;2023-07-13T04:48:39;5.78;;;4.70;;
29916;SDS011;16786;49.466;11.068;2023-07-13T04:51:06;5.90;;;4.90;;
29916;SDS011;16786;49.466;11.068;2023-07-13T04:53:34;7.97;;;5.05;;
29916;SDS011;16786;49.466;11.068;2023-07-13T04:56:02;5.70;;;4.85;;
29916;SDS011;16786;49.466;11.068;2023-07-13T04:58:30;7.03;;;4.75;;
29916;SDS011;16786;49.466;11.068;2023-07-13T05:01:01;5.88;;;4.97;;
29916;SDS011;16786;49.466;11.068;2023-07-13T05:03:30;7.70;;;5.75;;
29916;SDS011;16786;49.466;11.068;2023-07-13T05:05:59;6.28;;;5.20;;
29916;SDS011;16786;49.466;11.068;2023-07-13T05:08:31;5.55;;;4.40;;
29916;SDS011;16786;49.466;11.068;2023-07-13T05:10:59;6.97;;;4.85;;
29916;SDS011;16786;49.466;11.068;2023-07-13T05:13:28;6.00;;;4.85;;
29916;SDS011;16786;49.466;11.068;2023-07-13T05:15:57;6.25;;;5.05;;
29916;SDS011;16786;49.466;11.068;2023-07-13T05:18:26;6.32;;;5.38;;
29916;SDS011;16786;49.466;11.068;2023-07-13T05:21:00;6.97;;;5.10;;
29916;SDS011;16786;49.466;11.068;2023-07-13T05:23:30;10.55;;;5.78;;
29916;SDS011;16786;49.466;11.068;2023-07-13T05:25:58;6.85;;;5.07;;
29916;SDS011;16786;49.466;11.068;2023-07-13T05:28:26;7.25;;;5.47;;
29916;SDS011;16786;49.466;11.068;2023-07-13T05:30:55;7.38;;;5.78;;
29916;SDS011;16786;49.466;11.068;2023-07-13T05:33:24;7.75;;;5.85;;
29916;SDS011;16786;49.466;11.068;2023-07-13T05:35:52;6.72;;;5.38;;
29916;SDS011;16786;49.466;11.068;2023-07-13T05:38:19;8.25;;;5.07;;
29916;SDS011;16786;49.466;11.068;2023-07-13T05:40:47;6.45;;;5.28;;
29916;SDS011;16786;49.466;11.068;2023-07-13T05:43:15;5.68;;;5.18;;
29916;SDS011;16786;49.466;11.068;2023-07-13T05:45:42;7.63;;;5.55;;
29916;SDS011;16786;49.466;11.068;2023-07-13T05:48:10;6.20;;;5.15;;
29916;SDS011;16786;49.466;11.068;2023-07-13T05:50:37;6.63;;;5.07;;
29916;SDS011;16786;49.466;11.068;2023-07-13T05:53:05;9.93;;;5.45;;
29916;SDS011;16786;49.466;11.068;2023-07-13T05:55:32;6.38;;;4.93;;
29916;SDS011;16786;49.466;11.068;2023-07-13T05:58:00;7.70;;;5.40;;
29916;SDS011;16786;49.466;11.068;2023-07-13T06:00:28;8.20;;;5.22;;
29916;SDS011;16786;49.466;11.068;2023-07-13T06:02:55;5.38;;;4.88;;
29916;SDS011;16786;49.466;11.068;2023-07-13T06:05:25;5.82;;;5.32;;
29916;SDS011;16786;49.466;11.068;2023-07-13T06:07:55;7.85;;;4.97;;
29916;SDS011;16786;49.466;11.068;2023-07-13T06:10:22;8.05;;;5.50;;
29916;SDS011;16786;49.466;11.068;2023-07-13T06:12:49;5.57;;;4.50;;
29916;SDS011;16786;49.466;11.068;2023-07-13T06:15:16;8.07;;;4.82;;
29916;SDS011;16786;49.466;11.068;2023-07-13T06:17:44;5.28;;;4.63;;
29916;SDS011;16786;49.466;11.068;2023-07-13T06:20:12;7.45;;;4.85;;
29916;SDS011;16786;49.466;11.068;2023-07-13T06:22:39;6.28;;;4.78;;
29916;SDS011;16786;49.466;11.068;2023-07-13T06:25:07;8.20;;;5.13;;
29916;SDS011;16786;49.466;11.068;2023-07-13T06:27:35;8.05;;;5.30;;
29916;SDS011;16786;49.466;11.068;2023-07-13T06:30:02;5.68;;;5.10;;
29916;SDS011;16786;49.466;11.068;2023-07-13T06:32:30;9.07;;;5.53;;
29916;SDS011;16786;49.466;11.068;2023-07-13T06:34:57;5.72;;;5.05;;
29916;SDS011;16786;49.466;11.068;2023-07-13T06:37:24;7.28;;;5.22;;
29916;SDS011;16786;49.466;11.068;2023-07-13T06:39:52;6.25;;;5.65;;
29916;SDS011;16786;49.466;11.068;2023-07-13T06:42:19;7.55;;;5.25;;
29916;SDS011;16786;49.466;11.068;2023-07-13T06:44:46;5.68;;;4.72;;
29916;SDS011;16786;49.466;11.068;2023-07-13T06:47:14;8.10;;;5.00;;
29916;SDS011;16786;49.466;11.068;2023-07-13T06:49:41;6.72;;;4.90;;
29916;SDS011;16786;49.466;11.068;2023-07-13T06:52:08;10.98;;;5.03;;
29916;SDS011;16786;49.466;11.068;2023-07-13T06:54:36;7.65;;;4.95;;
29916;SDS011;16786;49.466;11.068;2023-07-13T06:57:03;6.85;;;4.82;;
29916;SDS011;16786;49.466;11.068;2023-07-13T06:59:31;6.28;;;5.10;;
29916;SDS011;16786;49.466;11.068;2023-07-13T07:01:58;7.80;;;5.22;;
29916;SDS011;16786;49.466;11.068;2023-07-13T07:04:26;7.63;;;4.75;;
29916;SDS011;16786;49.466;11.068;2023-07-13T07:06:53;7.40;;;5.15;;
29916;SDS011;16786;49.466;11.068;2023-07-13T07:09:24;8.75;;;5.38;;
29916;SDS011;16786;49.466;11.068;2023-07-13T07:11:52;8.20;;;5.30;;
29916;SDS011;16786;49.466;11.068;2023-07-13T07:14:30;9.98;;;5.57;;
29916;SDS011;16786;49.466;11.068;2023-07-13T07:16:58;7.70;;;5.18;;
29916;SDS011;16786;49.466;11.068;2023-07-13T07:19:27;6.80;;;5.50;;
29916;SDS011;16786;49.466;11.068;2023-07-13T07:21:56;6.30;;;5.45;;
29916;SDS011;16786;49.466;11.068;2023-07-13T07:24:23;7.43;;;5.60;;
29916;SDS011;16786;49.466;11.068;2023-07-13T07:26:51;7.22;;;5.65;;
29916;SDS011;16786;49.466;11.068;2023-07-13T07:29:21;8.40;;;5.72;;
29916;SDS011;16786;49.466;11.068;2023-07-13T07:31:52;7.67;;;5.70;;
29916;SDS011;16786;49.466;11.068;2023-07-13T07:34:24;7.18;;;5.15;;
29916;SDS011;16786;49.466;11.068;2023-07-13T07:36:51;6.63;;;5.57;;
29916;SDS011;16786;49.466;11.068;2023-07-13T07:39:22;6.65;;;5.78;;
29916;SDS011;16786;49.466;11.068;2023-07-13T07:41:50;9.88;;;5.53;;
29916;SDS011;16786;49.466;11.068;2023-07-13T07:44:20;7.18;;;5.72;;
29916;SDS011;16786;49.466;11.068;2023-07-13T07:46:47;7.10;;;5.50;;
29916;SDS011;16786;49.466;11.068;2023-07-13T07:49:16;9.52;;;5.55;;
29916;SDS011;16786;49.466;11.068;2023-07-13T07:51:43;9.40;;;5.60;;
29916;SDS011;16786;49.466;11.068;2023-07-13T07:54:10;7.30;;;5.20;;
29916;SDS011;16786;49.466;11.068;2023-07-13T07:56:47;7.82;;;5.30;;
29916;SDS011;16786;49.466;11.068;2023-07-13T07:59:36;6.65;;;5.57;;
29916;SDS011;16786;49.466;11.068;2023-07-13T08:02:08;11.38;;;5.78;;
29916;SDS011;16786;49.466;11.068;2023-07-13T08:04:57;7.50;;;5.90;;
29916;SDS011;16786;49.466;11.068;2023-07-13T08:07:27;6.30;;;5.72;;
29916;SDS011;16786;49.466;11.068;2023-07-13T08:09:56;6.60;;;5.50;;
29916;SDS011;16786;49.466;11.068;2023-07-13T08:12:24;6.35;;;5.60;;
29916;SDS011;16786;49.466;11.068;2023-07-13T08:14:54;6.15;;;5.45;;
29916;SDS011;16786;49.466;11.068;2023-07-13T08:17:24;10.30;;;5.70;;
29916;SDS011;16786;49.466;11.068;2023-07-13T08:19:52;7.07;;;6.25;;
29916;SDS011;16786;49.466;11.068;2023-07-13T08:22:20;8.13;;;5.28;;
29916;SDS011;16786;49.466;11.068;2023-07-13T08:24:47;7.97;;;5.65;;
29916;SDS011;16786;49.466;11.068;2023-07-13T08:27:22;9.35;;;6.70;;
29916;SDS011;16786;49.466;11.068;2023-07-13T08:29:51;5.97;;;5.38;;
29916;SDS011;16786;49.466;11.068;2023-07-13T08:32:19;6.20;;;5.53;;
29916;SDS011;16786;49.466;11.068;2023-07-13T08:34:49;5.85;;;5.32;;
29916;SDS011;16786;49.466;11.068;2023-07-13T08:37:17;7.65;;;5.47;;
29916;SDS011;16786;49.466;11.068;2023-07-13T08:39:45;7.15;;;5.10;;
29916;SDS011;16786;49.466;11.068;2023-07-13T08:47:22;6.00;;;4.90;;
29916;SDS011;16786;49.466;11.068;2023-07-13T08:49:51;7.05;;;5.20;;
29916;SDS011;16786;49.466;11.068;2023-07-13T08:52:31;6.07;;;5.20;;
29916;SDS011;16786;49.466;11.068;2023-07-13T08:55:11;6.65;;;5.35;;
29916;SDS011;16786;49.466;11.068;2023-07-13T08:57:50;8.07;;;5.45;;
29916;SDS011;16786;49.466;11.068;2023-07-13T09:00:23;5.65;;;4.95;;
29916;SDS011;16786;49.466;11.068;2023-07-13T09:02:57;8.13;;;5.40;;
29916;SDS011;16786;49.466;11.068;2023-07-13T09:05:31;5.68;;;5.18;;
29916;SDS011;16786;49.466;11.068;2023-07-13T09:13:13;6.20;;;5.10;;
29916;SDS011;16786;49.466;11.068;2023-07-13T09:16:13;6.13;;;5.40;;
29916;SDS011;16786;49.466;11.068;2023-07-13T09:18:42;11.23;;;5.45;;
29916;SDS011;16786;49.466;11.068;2023-07-13T09:21:23;6.57;;;5.75;;
29916;SDS011;16786;49.466;11.068;2023-07-13T09:24:04;5.95;;;5.20;;
29916;SDS011;16786;49.466;11.068;2023-07-13T09:26:48;6.53;;;5.70;;
29916;SDS011;16786;49.466;11.068;2023-07-13T09:29:30;6.20;;;5.60;;
29916;SDS011;16786;49.466;11.068;2023-07-13T09:32:01;6.07;;;5.45;;
29916;SDS011;16786;49.466;11.068;2023-07-13T09:34:33;6.00;;;5.40;;
29916;SDS011;16786;49.466;11.068;2023-07-13T09:37:00;7.57;;;5.15;;
29916;SDS011;16786;49.466;11.068;2023-07-13T09:39:29;7.43;;;5.50;;
29916;SDS011;16786;49.466;11.068;2023-07-13T09:44:42;5.90;;;5.30;;
29916;SDS011;16786;49.466;11.068;2023-07-13T09:47:19;6.35;;;5.32;;
29916;SDS011;16786;49.466;11.068;2023-07-13T09:50:01;5.72;;;5.22;;
29916;SDS011;16786;49.466;11.068;2023-07-13T09:52:46;7.30;;;5.45;;
29916;SDS011;16786;49.466;11.068;2023-07-13T09:58:04;6.72;;;5.80;;
29916;SDS011;16786;49.466;11.068;2023-07-13T10:00:44;6.38;;;5.57;;
29916;SDS011;16786;49.466;11.068;2023-07-13T10:03:30;4.40;;;4.00;;
29916;SDS011;16786;49.466;11.068;2023-07-13T10:06:25;7.15;;;5.90;;
29916;SDS011;16786;49.466;11.068;2023-07-13T10:08:55;6.07;;;5.45;;
29916;SDS011;16786;49.466;11.068;2023-07-13T10:11:28;7.05;;;5.60;;
29916;SDS011;16786;49.466;11.068;2023-07-13T10:14:00;6.78;;;5.32;;
29916;SDS011;16786;49.466;11.068;2023-07-13T10:16:30;5.85;;;5.35;;
29916;SDS011;16786;49.466;11.068;2023-07-13T10:19:10;5.82;;;5.20;;
29916;SDS011;16786;49.466;11.068;2023-07-13T10:21:55;7.72;;;5.80;;
29916;SDS011;16786;49.466;11.068;2023-07-13T10:24:26;6.18;;;5.60;;
29916;SDS011;16786;49.466;11.068;2023-07-13T10:29:59;6.85;;;5.63;;
29916;SDS011;16786;49.466;11.068;2023-07-13T10:32:49;6.47;;;5.47;;
29916;SDS011;16786;49.466;11.068;2023-07-13T10:35:17;7.78;;;6.18;;
29916;SDS011;16786;49.466;11.068;2023-07-13T10:37:54;7.15;;;5.78;;
29916;SDS011;16786;49.466;11.068;2023-07-13T10:40:55;6.78;;;6.18;;
29916;SDS011;16786;49.466;11.068;2023-07-13T10:43:33;8.43;;;5.63;;
29916;SDS011;16786;49.466;11.068;2023-07-13T10:46:10;6.75;;;6.05;;
29916;SDS011;16786;49.466;11.068;2023-07-13T10:48:40;6.97;;;5.43;;
29916;SDS011;16786;49.466;11.068;2023-07-13T10:51:10;6.20;;;5.60;;
29916;SDS011;16786;49.466;11.068;2023-07-13T10:53:41;6.35;;;5.63;;
29916;SDS011;16786;49.466;11.068;2023-07-13T11:04:23;6.57;;;5.97;;
29916;SDS011;16786;49.466;11.068;2023-07-13T11:07:09;6.20;;;5.55;;
29916;SDS011;16786;49.466;11.068;2023-07-13T11:09:46;10.38;;;6.07;;
29916;SDS011;16786;49.466;11.068;2023-07-13T11:20:07;7.03;;;5.60;;
29916;SDS011;16786;49.466;11.068;2023-07-13T11:28:14;7.38;;;5.22;;
29916;SDS011;16786;49.466;11.068;2023-07-13T11:30:49;6.37;;;5.87;;
29916;SDS011;16786;49.466;11.068;2023-07-13T11:38:55;8.38;;;5.35;;
29916;SDS011;16786;49.466;11.068;2023-07-13T11:41:29;7.07;;;5.60;;
29916;SDS011;16786;49.466;11.068;2023-07-13T11:44:05;6.70;;;5.70;;
29916;SDS011;16786;49.466;11.068;2023-07-13T11:46:45;6.60;;;5.22;;
29916;SDS011;16786;49.466;11.068;2023-07-13T11:49:19;6.13;;;5.50;;
29916;SDS011;16786;49.466;11.068;2023-07-13T11:51:50;6.45;;;5.72;;
29916;SDS011;16786;49.466;11.068;2023-07-13T11:54:41;8.25;;;5.30;;
29916;SDS011;16786;49.466;11.068;2023-07-13T11:59:44;7.68;;;5.32;;
29916;SDS011;16786;49.466;11.068;2023-07-13T12:02:16;5.60;;;5.03;;
29916;SDS011;16786;49.466;11.068;2023-07-13T12:04:54;8.30;;;5.43;;
29916;SDS011;16786;49.466;11.068;2023-07-13T12:07:22;8.30;;;5.18;;
29916;SDS011;16786;49.466;11.068;2023-07-13T12:09:50;5.80;;;5.20;;
29916;SDS011;16786;49.466;11.068;2023-07-13T12:12:18;6.88;;;5.30;;
29916;SDS011;16786;49.466;11.068;2023-07-13T12:14:51;5.93;;;5.40;;
29916;SDS011;16786;49.466;11.068;2023-07-13T12:17:20;8.07;;;5.47;;
29916;SDS011;16786;49.466;11.068;2023-07-13T12:19:49;7.82;;;5.10;;
29916;SDS011;16786;49.466;11.068;2023-07-13T12:22:19;6.32;;;5.32;;
29916;SDS011;16786;49.466;11.068;2023-07-13T12:24:47;7.00;;;6.20;;
29916;SDS011;16786;49.466;11.068;2023-07-13T12:27:22;6.63;;;6.00;;
29916;SDS011;16786;49.466;11.068;2023-07-13T12:29:59;6.88;;;5.68;;
29916;SDS011;16786;49.466;11.068;2023-07-13T12:33:08;8.75;;;5.65;;
29916;SDS011;16786;49.466;11.068;2023-07-13T12:35:57;8.70;;;6.22;;
29916;SDS011;16786;49.466;11.068;2023-07-13T12:38:26;6.15;;;5.65;;
29916;SDS011;16786;49.466;11.068;2023-07-13T12:40:54;6.35;;;5.75;;
29916;SDS011;16786;49.466;11.068;2023-07-13T12:43:22;6.72;;;6.10;;
29916;SDS011;16786;49.466;11.068;2023-07-13T12:45:56;6.50;;;5.90;;
29916;SDS011;16786;49.466;11.068;2023-07-13T12:48:38;7.93;;;5.95;;
29916;SDS011;16786;49.466;11.068;2023-07-13T12:51:14;7.53;;;5.50;;
29916;SDS011;16786;49.466;11.068;2023-07-13T12:53:55;6.55;;;5.70;;
29916;SDS011;16786;49.466;11.068;2023-07-13T12:56:27;7.35;;;5.68;;
29916;SDS011;16786;49.466;11.068;2023-07-13T12:58:58;6.97;;;6.00;;
29916;SDS011;16786;49.466;11.068;2023-07-13T13:04:00;6.43;;;5.55;;
29916;SDS011;16786;49.466;11.068;2023-07-13T13:06:31;7.22;;;5.28;;
29916;SDS011;16786;49.466;11.068;2023-07-13T13:08:58;5.90;;;5.30;;
29916;SDS011;16786;49.466;11.068;2023-07-13T13:11:27;6.22;;;5.10;;
29916;SDS011;16786;49.466;11.068;2023-07-13T13:13:56;6.20;;;5.60;;
29916;SDS011;16786;49.466;11.068;2023-07-13T13:19:22;7.20;;;5.70;;
29916;SDS011;16786;49.466;11.068;2023-07-13T13:21:53;6.28;;;5.65;;
29916;SDS011;16786;49.466;11.068;2023-07-13T13:24:23;7.28;;;5.75;;
29916;SDS011;16786;49.466;11.068;2023-07-13T13:26:53;9.38;;;5.82;;
29916;SDS011;16786;49.466;11.068;2023-07-13T13:29:24;6.00;;;5.50;;
29916;SDS011;16786;49.466;11.068;2023-07-13T13:31:54;8.40;;;6.20;;
29916;SDS011;16786;49.466;11.068;2023-07-13T13:34:23;6.53;;;5.78;;
29916;SDS011;16786;49.466;11.068;2023-07-13T13:36:52;7.93;;;5.97;;
29916;SDS011;16786;49.466;11.068;2023-07-13T13:39:28;6.30;;;5.70;;
29916;SDS011;16786;49.466;11.068;2023-07-13T13:42:00;6.90;;;5.60;;
29916;SDS011;16786;49.466;11.068;2023-07-13T13:44:28;5.88;;;5.38;;
29916;SDS011;16786;49.466;11.068;2023-07-13T13:46:55;7.95;;;6.18;;
29916;SDS011;16786;49.466;11.068;2023-07-13T13:49:24;7.47;;;5.90;;
29916;SDS011;16786;49.466;11.068;2023-07-13T13:51:53;6.00;;;5.40;;
29916;SDS011;16786;49.466;11.068;2023-07-13T13:54:21;7.25;;;6.13;;
29916;SDS011;16786;49.466;11.068;2023-07-13T13:56:50;6.38;;;5.70;;
29916;SDS011;16786;49.466;11.068;2023-07-13T13:59:19;5.70;;;5.20;;
29916;SDS011;16786;49.466;11.068;2023-07-13T14:01:47;6.90;;;5.32;;
29916;SDS011;16786;49.466;11.068;2023-07-13T14:04:17;10.82;;;5.68;;
29916;SDS011;16786;49.466;11.068;2023-07-13T14:06:46;8.98;;;5.53;;
29916;SDS011;16786;49.466;11.068;2023-07-13T14:09:15;6.00;;;5.50;;
29916;SDS011;16786;49.466;11.068;2023-07-13T14:11:45;6.20;;;5.70;;
29916;SDS011;16786;49.466;11.068;2023-07-13T14:14:20;6.20;;;5.60;;
29916;SDS011;16786;49.466;11.068;2023-07-13T14:16:51;6.40;;;5.45;;
29916;SDS011;16786;49.466;11.068;2023-07-13T14:19:21;6.40;;;5.50;;
29916;SDS011;16786;49.466;11.068;2023-07-13T14:21:49;7.95;;;5.65;;
29916;SDS011;16786;49.466;11.068;2023-07-13T14:24:19;10.95;;;6.00;;
29916;SDS011;16786;49.466;11.068;2023-07-13T14:26:48;5.95;;;5.35;;
29916;SDS011;16786;49.466;11.068;2023-07-13T14:29:18;6.05;;;5.47;;
29916;SDS011;16786;49.466;11.068;2023-07-13T14:31:50;6.00;;;5.40;;
29916;SDS011;16786;49.466;11.068;2023-07-13T14:34:18;9.15;;;5.28;;
29916;SDS011;16786;49.466;11.068;2023-07-13T14:36:47;7.90;;;5.20;;
29916;SDS011;16786;49.466;11.068;2023-07-13T14:39:21;5.90;;;5.25;;
29916;SDS011;16786;49.466;11.068;2023-07-13T14:41:50;7.07;;;5.70;;
29916;SDS011;16786;49.466;11.068;2023-07-13T14:44:24;8.25;;;5.30;;
29916;SDS011;16786;49.466;11.068;2023-07-13T14:46:53;6.25;;;5.22;;
29916;SDS011;16786;49.466;11.068;2023-07-13T14:49:24;5.90;;;5.30;;
29916;SDS011;16786;49.466;11.068;2023-07-13T14:51:56;6.55;;;5.88;;
29916;SDS011;16786;49.466;11.068;2023-07-13T14:54:25;5.70;;;5.20;;
29916;SDS011;16786;49.466;11.068;2023-07-13T14:56:53;5.95;;;5.30;;
29916;SDS011;16786;49.466;11.068;2023-07-13T14:59:20;6.18;;;5.30;;
29916;SDS011;16786;49.466;11.068;2023-07-13T15:01:48;6.55;;;5.28;;
29916;SDS011;16786;49.466;11.068;2023-07-13T15:04:16;6.13;;;5.25;;
29916;SDS011;16786;49.466;11.068;2023-07-13T15:06:55;5.82;;;5.32;;
29916;SDS011;16786;49.466;11.068;2023-07-13T15:09:26;6.30;;;5.70;;
29916;SDS011;16786;49.466;11.068;2023-07-13T15:11:54;7.10;;;5.88;;
29916;SDS011;16786;49.466;11.068;2023-07-13T15:14:22;6.07;;;5.47;;
29916;SDS011;16786;49.466;11.068;2023-07-13T15:16:53;7.57;;;5.95;;
29916;SDS011;16786;49.466;11.068;2023-07-13T15:19:22;7.53;;;5.45;;
29916;SDS011;16786;49.466;11.068;2023-07-13T15:21:52;7.80;;;5.68;;
29916;SDS011;16786;49.466;11.068;2023-07-13T15:24:21;7.30;;;5.68;;
29916;SDS011;16786;49.466;11.068;2023-07-13T15:26:49;6.20;;;5.38;;
29916;SDS011;16786;49.466;11.068;2023-07-13T15:29:16;6.78;;;5.50;;
29916;SDS011;16786;49.466;11.068;2023-07-13T15:31:44;8.57;;;5.82;;
29916;SDS011;16786;49.466;11.068;2023-07-13T15:34:14;9.10;;;6.00;;
29916;SDS011;16786;49.466;11.068;2023-07-13T15:36:43;6.28;;;5.68;;
29916;SDS011;16786;49.466;11.068;2023-07-13T15:39:14;6.03;;;5.25;;
29916;SDS011;16786;49.466;11.068;2023-07-13T15:41:45;6.47;;;5.38;;
29916;SDS011;16786;49.466;11.068;2023-07-13T15:44:30;8.20;;;6.18;;
29916;SDS011;16786;49.466;11.068;2023-07-13T15:46:58;6.68;;;5.60;;
29916;SDS011;16786;49.466;11.068;2023-07-13T15:49:27;7.00;;;6.05;;